createdAt,value
2023-03-18T00:00:10.309Z,54.70
2023-03-18T00:02:39.073Z,62.90
2023-03-18T00:05:11.838Z,49.47
2023-03-18T00:07:40.753Z,45.58
2023-03-18T00:10:12.399Z,51.72
2023-03-18T00:15:12.652Z,40.33
2023-03-18T00:20:13.267Z,38.03
2023-03-18T00:22:43.501Z,41.10
2023-03-18T00:25:13.976Z,36.15
2023-03-18T00:27:42.553Z,30.83
2023-03-18T00:30:12.560Z,24.45
2023-03-18T00:32:41.651Z,39.83
2023-03-18T00:35:12.347Z,32.60
2023-03-18T00:37:40.549Z,24.57
2023-03-18T00:40:17.390Z,30.67
2023-03-18T00:42:50.703Z,34.50
2023-03-18T00:45:19.208Z,29.17
2023-03-18T00:47:48.547Z,28.13
2023-03-18T00:50:18.654Z,29.77
2023-03-18T00:52:46.793Z,31.67
2023-03-18T00:55:15.815Z,27.83
2023-03-18T00:57:44.017Z,31.05
2023-03-18T01:00:13.255Z,32.05
2023-03-18T01:02:41.885Z,28.17
2023-03-18T01:05:13.229Z,29.02
2023-03-18T01:07:42.832Z,23.85
2023-03-18T01:10:12.741Z,30.83
2023-03-18T01:12:41.690Z,29.50
2023-03-18T01:15:11.198Z,26.25
2023-03-18T01:17:39.401Z,16.45
2023-03-18T01:20:09.761Z,22.08
2023-03-18T01:22:38.059Z,32.17
2023-03-18T01:25:10.056Z,26.75
2023-03-18T01:27:38.914Z,25.42
2023-03-18T01:30:09.331Z,21.33
2023-03-18T01:32:38.083Z,20.98
2023-03-18T01:35:07.408Z,22.13
2023-03-18T01:37:35.623Z,21.45
2023-03-18T01:40:04.213Z,25.58
2023-03-18T01:42:34.708Z,19.92
2023-03-18T01:45:19.535Z,19.30
2023-03-18T01:47:48.103Z,21.83
2023-03-18T01:50:20.071Z,30.60
2023-03-18T01:52:50.731Z,21.35
2023-03-18T01:55:22.516Z,19.73
2023-03-18T01:57:52.634Z,21.27
2023-03-18T02:00:23.502Z,18.03
2023-03-18T02:02:54.097Z,20.77
2023-03-18T02:07:53.265Z,21.13
2023-03-18T02:10:24.067Z,25.88
2023-03-18T02:12:59.230Z,17.95
2023-03-18T02:15:33.270Z,27.75
2023-03-18T02:18:06.037Z,19.38
2023-03-18T02:20:45.977Z,16.45
2023-03-18T02:23:21.674Z,18.33
2023-03-18T02:25:55.309Z,18.30
2023-03-18T02:28:27.829Z,17.17
2023-03-18T02:31:00.767Z,12.73
2023-03-18T02:33:35.002Z,20.20
2023-03-18T02:36:06.749Z,12.55
2023-03-18T02:38:34.939Z,13.10
2023-03-18T02:41:03.752Z,22.42
2023-03-18T02:43:35.080Z,24.95
2023-03-18T02:46:14.301Z,19.20
2023-03-18T02:48:45.117Z,19.02
2023-03-18T02:51:16.233Z,20.98
2023-03-18T02:53:45.200Z,23.25
2023-03-18T02:56:13.746Z,18.48
2023-03-18T02:58:43.445Z,17.42
2023-03-18T03:01:12.553Z,15.98
2023-03-18T03:03:41.668Z,15.38
2023-03-18T03:06:11.217Z,20.25
2023-03-18T03:08:40.341Z,12.27
2023-03-18T03:11:08.651Z,17.67
2023-03-18T03:13:37.007Z,16.45
2023-03-18T03:16:08.254Z,10.95
2023-03-18T03:18:37.376Z,15.98
2023-03-18T03:21:06.510Z,20.20
2023-03-18T03:23:34.727Z,23.95
2023-03-18T03:26:03.094Z,22.13
2023-03-18T03:28:32.935Z,20.58
2023-03-18T03:31:01.875Z,18.73
2023-03-18T03:33:31.547Z,20.15
2023-03-18T03:36:00.456Z,24.08
2023-03-18T03:38:28.702Z,22.83
2023-03-18T03:40:56.839Z,19.75
2023-03-18T03:43:25.088Z,23.60
2023-03-18T03:45:53.227Z,18.67
2023-03-18T03:48:21.436Z,21.08
2023-03-18T03:50:51.846Z,23.67
2023-03-18T03:53:20.033Z,25.38
2023-03-18T03:55:48.253Z,20.10
2023-03-18T03:58:16.422Z,19.85
2023-03-18T04:00:44.946Z,22.73
2023-03-18T04:03:13.581Z,24.20
2023-03-18T04:05:43.391Z,23.25
2023-03-18T04:08:13.047Z,19.17
2023-03-18T04:10:41.276Z,18.60
2023-03-18T04:13:10.401Z,34.78
2023-03-18T04:15:38.981Z,15.77
2023-03-18T04:18:07.876Z,29.30
2023-03-18T04:20:37.725Z,25.75
2023-03-18T04:23:06.319Z,28.30
2023-03-18T04:25:36.352Z,26.08
2023-03-18T04:28:04.677Z,27.60
2023-03-18T04:30:37.900Z,18.85
2023-03-18T04:33:06.158Z,28.13
2023-03-18T04:35:34.678Z,20.75
2023-03-18T04:38:02.951Z,26.08
2023-03-18T04:40:31.385Z,19.42
2023-03-18T04:43:01.310Z,20.55
2023-03-18T04:45:29.693Z,28.27
2023-03-18T04:47:57.833Z,23.98
2023-03-18T04:50:26.154Z,21.92
2023-03-18T04:52:54.286Z,25.98
2023-03-18T04:55:22.553Z,23.23
2023-03-18T04:57:50.914Z,26.02
2023-03-18T05:00:23.789Z,20.10
2023-03-18T05:02:52.141Z,25.42
2023-03-18T05:05:21.295Z,21.15
2023-03-18T05:07:49.508Z,21.38
2023-03-18T05:10:19.293Z,20.80
2023-03-18T05:12:48.710Z,28.73
2023-03-18T05:15:16.931Z,28.35
2023-03-18T05:17:46.664Z,26.23
2023-03-18T05:20:15.206Z,24.38
2023-03-18T05:22:43.352Z,21.40
2023-03-18T05:25:12.795Z,17.02
2023-03-18T05:27:41.920Z,22.00
2023-03-18T05:30:12.550Z,18.67
2023-03-18T05:32:40.803Z,25.77
2023-03-18T05:35:11.710Z,27.83
2023-03-18T05:37:40.209Z,29.80
2023-03-18T05:40:11.942Z,24.38
2023-03-18T05:42:57.146Z,23.60
2023-03-18T05:45:25.356Z,20.63
2023-03-18T05:47:53.865Z,24.15
2023-03-18T05:50:31.695Z,24.92
2023-03-18T05:53:00.864Z,24.15
2023-03-18T05:55:30.011Z,24.02
2023-03-18T05:58:00.434Z,25.98
2023-03-18T06:00:30.083Z,21.17
2023-03-18T06:02:59.461Z,23.38
2023-03-18T06:05:28.847Z,21.45
2023-03-18T06:07:58.756Z,20.73
2023-03-18T06:10:27.404Z,18.77
2023-03-18T06:12:56.602Z,19.98
2023-03-18T06:15:25.808Z,15.82
2023-03-18T06:17:54.136Z,17.33
2023-03-18T06:20:23.468Z,19.38
2023-03-18T06:22:51.874Z,18.92
2023-03-18T06:25:23.482Z,24.90
2023-03-18T06:30:21.551Z,11.68
2023-03-18T06:32:49.728Z,18.30
2023-03-18T06:35:19.044Z,20.35
2023-03-18T06:37:47.191Z,18.20
2023-03-18T06:40:15.819Z,18.33
2023-03-18T06:42:45.801Z,23.75
2023-03-18T06:45:15.365Z,24.25
2023-03-18T06:47:43.470Z,23.60
2023-03-18T06:50:13.752Z,21.90
2023-03-18T06:52:42.363Z,21.60
2023-03-18T06:55:11.289Z,17.27
2023-03-18T06:57:40.469Z,20.58
2023-03-18T07:00:13.693Z,16.20
2023-03-18T07:02:42.141Z,24.83
2023-03-18T07:05:12.722Z,29.25
2023-03-18T07:07:41.322Z,26.10
2023-03-18T07:10:19.379Z,22.08
2023-03-18T07:12:48.031Z,31.63
2023-03-18T07:15:20.400Z,24.10
2023-03-18T07:17:49.211Z,18.05
2023-03-18T07:20:18.530Z,17.70
2023-03-18T07:22:48.046Z,13.95
2023-03-18T07:25:16.393Z,16.85
2023-03-18T07:27:45.703Z,8.20
2023-03-18T07:30:14.789Z,5.03
2023-03-18T07:32:46.200Z,8.05
2023-03-18T07:37:43.630Z,3.13
2023-03-18T07:40:13.298Z,5.45
2023-03-18T07:42:41.540Z,6.38
2023-03-18T07:45:11.458Z,5.55
2023-03-18T07:47:39.973Z,2.45
2023-03-18T07:50:12.414Z,6.65
2023-03-18T07:52:40.684Z,4.13
2023-03-18T07:55:10.315Z,2.85
2023-03-18T07:57:38.615Z,7.90
2023-03-18T08:00:08.563Z,3.25
2023-03-18T08:02:37.086Z,5.30
2023-03-18T08:05:07.142Z,6.18
2023-03-18T08:07:38.041Z,2.95
2023-03-18T08:10:07.487Z,6.25
2023-03-18T08:12:51.520Z,2.65
2023-03-18T08:15:22.056Z,3.67
2023-03-18T08:17:50.358Z,4.65
2023-03-18T08:20:18.724Z,3.85
2023-03-18T08:22:48.663Z,6.25
2023-03-18T08:25:17.532Z,5.03
2023-03-18T08:27:45.739Z,4.75
2023-03-18T08:30:15.522Z,5.18
2023-03-18T08:32:43.766Z,6.95
2023-03-18T08:35:12.846Z,3.47
2023-03-18T08:37:41.210Z,1.90
2023-03-18T08:40:12.414Z,3.00
2023-03-18T08:42:40.584Z,6.18
2023-03-18T08:45:10.008Z,3.85
2023-03-18T08:47:38.197Z,6.05
2023-03-18T08:50:07.487Z,6.60
2023-03-18T08:52:38.058Z,4.78
2023-03-18T08:55:07.178Z,4.47
2023-03-18T08:57:37.432Z,5.70
2023-03-18T09:00:07.750Z,8.93
2023-03-18T09:02:36.597Z,5.68
2023-03-18T09:05:05.404Z,5.55
2023-03-18T09:07:33.913Z,4.57
2023-03-18T09:10:02.002Z,6.72
2023-03-18T09:12:30.126Z,11.27
2023-03-18T09:14:59.680Z,5.25
2023-03-18T09:17:45.209Z,4.15
2023-03-18T09:20:17.906Z,4.60
2023-03-18T09:22:47.284Z,3.15
2023-03-18T09:25:16.829Z,5.45
2023-03-18T09:27:45.953Z,5.47
2023-03-18T09:30:16.187Z,3.78
2023-03-18T09:32:44.809Z,3.95
2023-03-18T09:35:14.461Z,4.75
2023-03-18T09:37:42.705Z,4.43
2023-03-18T09:40:20.928Z,3.00
2023-03-18T09:43:00.969Z,5.85
2023-03-18T09:45:36.234Z,3.75
2023-03-18T09:48:39.957Z,5.32
2023-03-18T09:51:20.093Z,6.15
2023-03-18T09:53:54.360Z,4.65
2023-03-18T09:56:28.404Z,3.17
2023-03-18T09:59:03.575Z,5.07
2023-03-18T10:01:37.271Z,2.92
2023-03-18T10:04:12.231Z,6.72
2023-03-18T10:06:44.408Z,2.70
2023-03-18T10:09:20.335Z,7.93
2023-03-18T10:11:50.005Z,4.90
2023-03-18T10:14:37.491Z,6.07
2023-03-18T10:17:17.999Z,3.75
2023-03-18T10:19:50.288Z,7.10
2023-03-18T10:22:48.231Z,5.70
2023-03-18T10:25:24.824Z,4.07
2023-03-18T10:28:07.570Z,8.15
2023-03-18T10:30:53.035Z,10.40
2023-03-18T10:33:31.208Z,6.28
2023-03-18T10:36:07.986Z,7.82
2023-03-18T10:38:39.752Z,6.88
2023-03-18T10:41:17.382Z,5.38
2023-03-18T10:43:47.924Z,5.28
2023-03-18T10:46:18.220Z,4.82
2023-03-18T10:48:51.537Z,5.30
2023-03-18T10:51:25.911Z,3.70
2023-03-18T10:54:01.291Z,7.40
2023-03-18T10:56:30.111Z,4.63
2023-03-18T10:58:58.807Z,3.50
2023-03-18T11:01:30.310Z,5.20
2023-03-18T11:06:41.876Z,4.53
2023-03-18T11:09:12.955Z,1.10
2023-03-18T11:11:42.463Z,0.80
2023-03-18T11:14:18.062Z,2.40
2023-03-18T11:16:50.333Z,1.15
2023-03-18T11:19:32.305Z,3.28
2023-03-18T11:22:16.770Z,1.90
2023-03-18T11:24:45.098Z,3.85
2023-03-18T11:27:35.630Z,5.15
2023-03-18T11:30:16.687Z,5.18
2023-03-18T11:32:54.837Z,3.47
2023-03-18T11:35:26.771Z,3.60
2023-03-18T11:37:54.919Z,3.45
2023-03-18T11:40:28.415Z,3.83
2023-03-18T11:42:58.742Z,4.93
2023-03-18T11:45:45.073Z,5.90
2023-03-18T11:48:19.301Z,8.65
2023-03-18T11:51:05.381Z,6.82
2023-03-18T11:53:45.140Z,5.13
2023-03-18T11:56:22.439Z,6.32
2023-03-18T11:59:06.397Z,6.65
2023-03-18T12:01:44.875Z,7.03
2023-03-18T12:04:40.646Z,6.65
2023-03-18T12:07:41.638Z,11.00
2023-03-18T12:10:21.216Z,5.30
2023-03-18T12:12:59.980Z,3.80
2023-03-18T12:15:40.055Z,3.40
2023-03-18T12:18:23.218Z,2.38
2023-03-18T12:20:52.419Z,1.55
2023-03-18T12:23:49.721Z,0.63
2023-03-18T12:26:27.673Z,0.98
2023-03-18T12:29:13.178Z,1.08
2023-03-18T12:32:02.264Z,1.20
2023-03-18T12:34:49.283Z,1.25
2023-03-18T12:37:32.394Z,1.13
2023-03-18T12:40:15.596Z,0.70
2023-03-18T12:43:02.443Z,1.67
2023-03-18T12:45:38.053Z,1.92
2023-03-18T12:48:12.777Z,2.55
2023-03-18T12:50:44.133Z,2.55
2023-03-18T12:53:18.920Z,2.53
2023-03-18T12:55:52.028Z,4.00
2023-03-18T12:58:24.801Z,2.85
2023-03-18T13:00:58.838Z,5.30
2023-03-18T13:03:34.176Z,4.68
2023-03-18T13:06:07.906Z,3.50
2023-03-18T13:08:59.703Z,3.97
2023-03-18T13:14:06.449Z,2.10
2023-03-18T13:16:36.861Z,0.70
2023-03-18T13:19:06.635Z,0.75
2023-03-18T13:21:41.203Z,1.20
2023-03-18T13:24:47.935Z,1.17
2023-03-18T13:27:38.172Z,0.80
2023-03-18T13:30:15.553Z,3.90
2023-03-18T13:33:00.293Z,1.35
2023-03-18T13:35:50.727Z,0.50
2023-03-18T13:38:39.642Z,1.55
2023-03-18T13:41:32.584Z,1.45
2023-03-18T13:44:07.686Z,1.48
2023-03-18T13:46:36.171Z,1.17
2023-03-18T13:49:05.202Z,2.72
2023-03-18T13:51:53.841Z,1.58
2023-03-18T13:54:22.337Z,0.85
2023-03-18T13:56:55.759Z,1.45
2023-03-18T13:59:50.631Z,1.08
2023-03-18T14:02:46.172Z,1.70
2023-03-18T14:05:40.264Z,3.13
2023-03-18T14:08:35.094Z,1.58
2023-03-18T14:11:51.201Z,2.95
2023-03-18T14:15:06.237Z,0.52
2023-03-18T14:17:46.451Z,1.10
2023-03-18T14:20:28.731Z,1.63
2023-03-18T14:23:18.201Z,1.52
2023-03-18T14:25:54.587Z,1.08
2023-03-18T14:28:27.245Z,0.70
2023-03-18T14:31:26.556Z,2.40
2023-03-18T14:34:21.932Z,1.95
2023-03-18T14:37:20.041Z,3.28
2023-03-18T14:39:52.690Z,3.00
2023-03-18T14:42:43.945Z,1.75
2023-03-18T14:45:20.104Z,0.75
2023-03-18T14:47:51.081Z,2.83
2023-03-18T14:50:42.988Z,2.38
2023-03-18T14:53:20.356Z,2.88
2023-03-18T14:55:49.876Z,1.13
2023-03-18T14:58:19.603Z,2.55
2023-03-18T15:00:51.818Z,4.47
2023-03-18T15:03:24.916Z,1.80
2023-03-18T15:05:58.066Z,3.03
2023-03-18T15:08:44.588Z,1.48
2023-03-18T15:11:16.586Z,2.60
2023-03-18T15:13:45.260Z,3.33
2023-03-18T15:16:15.473Z,3.38
2023-03-18T15:18:43.787Z,3.90
2023-03-18T15:21:17.527Z,3.13
2023-03-18T15:23:49.838Z,4.15
2023-03-18T15:26:22.623Z,3.38
2023-03-18T15:28:55.238Z,6.13
2023-03-18T15:31:27.576Z,4.70
2023-03-18T15:34:15.552Z,6.45
2023-03-18T15:36:48.054Z,3.00
2023-03-18T15:39:22.638Z,5.78
2023-03-18T15:41:55.017Z,3.50
2023-03-18T15:44:28.702Z,5.40
2023-03-18T15:47:04.679Z,6.32
2023-03-18T15:49:33.348Z,5.03
2023-03-18T15:52:03.654Z,11.95
2023-03-18T15:54:40.624Z,5.25
2023-03-18T15:57:13.782Z,8.88
2023-03-18T15:59:41.991Z,4.35
2023-03-18T16:02:14.523Z,2.30
2023-03-18T16:04:44.936Z,3.60
2023-03-18T16:07:19.461Z,10.85
2023-03-18T16:09:47.601Z,8.00
2023-03-18T16:12:20.723Z,7.78
2023-03-18T16:14:50.608Z,7.38
2023-03-18T16:17:22.237Z,6.10
2023-03-18T16:19:54.507Z,11.48
2023-03-18T16:22:24.390Z,7.60
2023-03-18T16:24:53.028Z,7.78
2023-03-18T16:27:30.079Z,8.32
2023-03-18T16:29:58.309Z,7.57
2023-03-18T16:32:26.566Z,7.03
2023-03-18T16:34:54.950Z,9.27
2023-03-18T16:37:26.909Z,8.32
2023-03-18T16:39:56.130Z,5.60
2023-03-18T16:42:25.618Z,10.98
2023-03-18T16:44:53.934Z,8.07
2023-03-18T16:47:24.844Z,6.60
2023-03-18T16:49:53.201Z,9.35
2023-03-18T16:52:21.371Z,11.13
2023-03-18T16:54:50.897Z,12.20
2023-03-18T16:57:22.265Z,7.47
2023-03-18T16:59:55.889Z,6.93
2023-03-18T17:02:32.532Z,6.55
2023-03-18T17:05:00.928Z,10.82
2023-03-18T17:07:29.719Z,8.93
2023-03-18T17:09:59.253Z,6.30
2023-03-18T17:12:27.435Z,6.18
2023-03-18T17:14:58.751Z,7.07
2023-03-18T17:17:29.477Z,6.03
2023-03-18T17:19:59.796Z,9.75
2023-03-18T17:22:31.146Z,5.47
2023-03-18T17:25:02.407Z,7.03
2023-03-18T17:27:33.043Z,7.88
2023-03-18T17:30:01.535Z,8.97
2023-03-18T17:32:29.890Z,7.03
2023-03-18T17:34:58.435Z,6.32
2023-03-18T17:37:26.560Z,7.60
2023-03-18T17:39:54.803Z,6.43
2023-03-18T17:42:33.032Z,12.90
2023-03-18T17:45:07.636Z,3.80
2023-03-18T17:47:36.884Z,13.57
2023-03-18T17:50:05.972Z,9.35
2023-03-18T17:52:34.154Z,7.57
2023-03-18T17:55:02.671Z,12.80
2023-03-18T17:57:32.338Z,9.98
2023-03-18T18:00:00.532Z,10.18
2023-03-18T18:02:28.969Z,9.20
2023-03-18T18:04:57.172Z,14.27
2023-03-18T18:07:25.593Z,6.18
2023-03-18T18:09:53.726Z,6.82
2023-03-18T18:12:23.579Z,7.00
2023-03-18T18:14:53.277Z,6.18
2023-03-18T18:17:21.931Z,14.63
2023-03-18T18:19:50.067Z,13.35
2023-03-18T18:22:20.880Z,9.52
2023-03-18T18:24:50.448Z,16.45
2023-03-18T18:27:18.625Z,20.63
2023-03-18T18:29:47.199Z,18.45
2023-03-18T18:32:17.112Z,14.00
2023-03-18T18:34:46.772Z,13.02
2023-03-18T18:37:15.063Z,10.15
2023-03-18T18:39:43.785Z,11.00
2023-03-18T18:42:12.637Z,14.90
2023-03-18T18:44:40.820Z,18.65
2023-03-18T18:47:20.354Z,18.85
2023-03-18T18:49:48.501Z,13.98
2023-03-18T18:52:17.096Z,16.88
2023-03-18T18:54:45.178Z,15.05
2023-03-18T18:57:26.864Z,18.67
2023-03-18T19:02:31.613Z,16.88
2023-03-18T19:05:00.128Z,11.40
2023-03-18T19:07:29.437Z,7.22
2023-03-18T19:09:57.612Z,20.85
2023-03-18T19:12:28.925Z,10.20
2023-03-18T19:14:57.381Z,12.25
2023-03-18T19:17:27.068Z,17.65
2023-03-18T19:19:55.750Z,19.13
2023-03-18T19:22:24.603Z,15.40
2023-03-18T19:24:53.129Z,14.07
2023-03-18T19:27:26.683Z,13.75
2023-03-18T19:29:57.204Z,8.45
2023-03-18T19:32:27.413Z,9.90
2023-03-18T19:34:56.425Z,12.80
2023-03-18T19:37:28.936Z,10.52
2023-03-18T19:39:58.230Z,8.75
2023-03-18T19:42:26.969Z,12.23
2023-03-18T19:44:56.051Z,19.80
2023-03-18T19:47:26.610Z,17.05
2023-03-18T19:49:56.748Z,13.95
2023-03-18T19:52:27.241Z,16.33
2023-03-18T19:54:56.181Z,13.03
2023-03-18T19:57:27.207Z,14.93
2023-03-18T19:59:57.691Z,13.40
2023-03-18T20:02:27.833Z,14.30
2023-03-18T20:04:59.260Z,16.35
2023-03-18T20:09:57.178Z,11.18
2023-03-18T20:12:27.475Z,10.45
2023-03-18T20:14:55.744Z,9.18
2023-03-18T20:17:33.949Z,9.73
2023-03-18T20:20:04.005Z,11.82
2023-03-18T20:22:34.472Z,8.20
2023-03-18T20:25:06.055Z,11.90
2023-03-18T20:27:34.632Z,15.15
2023-03-18T20:30:03.331Z,10.50
2023-03-18T20:32:31.837Z,9.38
2023-03-18T20:35:02.891Z,9.30
2023-03-18T20:37:36.162Z,8.25
2023-03-18T20:40:07.206Z,17.13
2023-03-18T20:42:35.349Z,15.25
2023-03-18T20:45:03.512Z,8.38
2023-03-18T20:47:31.694Z,9.10
2023-03-18T20:49:59.910Z,13.95
2023-03-18T20:52:30.582Z,12.82
2023-03-18T20:55:00.372Z,9.82
2023-03-18T20:57:28.487Z,12.40
2023-03-18T20:59:57.106Z,8.48
2023-03-18T21:02:33.404Z,15.95
2023-03-18T21:05:03.207Z,8.13
2023-03-18T21:07:31.670Z,14.80
2023-03-18T21:10:01.375Z,7.65
2023-03-18T21:12:29.576Z,17.45
2023-03-18T21:14:57.747Z,13.85
2023-03-18T21:17:28.428Z,14.00
2023-03-18T21:20:04.934Z,10.87
2023-03-18T21:22:39.519Z,21.92
2023-03-18T21:25:17.456Z,13.35
2023-03-18T21:27:46.112Z,12.73
2023-03-18T21:30:15.606Z,11.45
2023-03-18T21:32:45.000Z,13.55
2023-03-18T21:35:20.018Z,11.27
2023-03-18T21:37:48.260Z,15.48
2023-03-18T21:40:21.489Z,6.28
2023-03-18T21:42:50.257Z,9.13
2023-03-18T21:45:21.031Z,9.35
2023-03-18T21:47:49.200Z,12.15
2023-03-18T21:50:22.668Z,7.78
2023-03-18T21:52:51.500Z,5.22
2023-03-18T21:55:21.778Z,8.45
2023-03-18T21:57:50.039Z,16.25
2023-03-18T22:00:20.555Z,19.08
2023-03-18T22:02:49.770Z,9.85
2023-03-18T22:05:19.716Z,11.00
2023-03-18T22:07:47.977Z,14.75
2023-03-18T22:10:17.200Z,12.05
2023-03-18T22:12:47.477Z,10.00
2023-03-18T22:15:35.213Z,8.77
2023-03-18T22:18:04.182Z,14.50
2023-03-18T22:20:33.054Z,10.05
2023-03-18T22:23:01.465Z,9.60
2023-03-18T22:25:32.206Z,9.57
2023-03-18T22:28:02.301Z,6.75
2023-03-18T22:30:33.244Z,11.80
2023-03-18T22:33:03.611Z,11.90
2023-03-18T22:35:32.094Z,8.75
2023-03-18T22:38:00.796Z,10.90
2023-03-18T22:40:31.646Z,7.68
2023-03-18T22:43:02.882Z,7.95
2023-03-18T22:45:33.102Z,14.95
2023-03-18T22:48:04.205Z,5.07
2023-03-18T22:50:35.173Z,9.85
2023-03-18T22:53:07.123Z,11.63
2023-03-18T22:55:38.063Z,8.95
2023-03-18T22:58:08.603Z,13.07
2023-03-18T23:00:38.774Z,7.95
2023-03-18T23:03:13.069Z,14.73
2023-03-18T23:05:41.734Z,13.40
2023-03-18T23:08:10.192Z,10.50
2023-03-18T23:10:39.399Z,11.88
2023-03-18T23:13:18.828Z,9.55
2023-03-18T23:15:51.454Z,9.65
2023-03-18T23:18:21.454Z,10.00
2023-03-18T23:20:51.581Z,14.38
2023-03-18T23:23:21.124Z,13.52
2023-03-18T23:25:50.736Z,11.52
2023-03-18T23:28:20.962Z,14.70
2023-03-18T23:30:51.409Z,18.70
2023-03-18T23:33:20.355Z,13.48
2023-03-18T23:35:48.998Z,13.43
2023-03-18T23:38:17.468Z,16.90
2023-03-18T23:40:45.576Z,16.85
2023-03-18T23:43:19.009Z,15.30
2023-03-18T23:45:48.954Z,13.15
2023-03-18T23:48:17.346Z,9.93
2023-03-18T23:50:45.576Z,19.85
2023-03-18T23:53:13.704Z,15.93
2023-03-18T23:55:41.891Z,19.73
2023-03-18T23:58:10.132Z,17.23
